createdAt,value
2022-10-11T00:00:59.961Z,3.15
2022-10-11T00:03:28.420Z,2.83
2022-10-11T00:05:56.113Z,3.10
2022-10-11T00:08:23.775Z,3.08
2022-10-11T00:11:02.397Z,3.03
2022-10-11T00:13:31.177Z,2.95
2022-10-11T00:15:59.645Z,2.75
2022-10-11T00:18:27.317Z,3.17
2022-10-11T00:21:03.936Z,3.00
2022-10-11T00:23:33.210Z,3.33
2022-10-11T00:26:02.450Z,3.05
2022-10-11T00:28:31.172Z,2.95
2022-10-11T00:30:59.029Z,2.92
2022-10-11T00:33:26.725Z,2.92
2022-10-11T00:35:54.147Z,2.55
2022-10-11T00:38:21.788Z,2.70
2022-10-11T00:40:49.398Z,2.60
2022-10-11T00:43:19.559Z,3.03
2022-10-11T00:45:56.116Z,3.10
2022-10-11T00:48:27.635Z,2.72
2022-10-11T00:50:57.048Z,2.70
2022-10-11T00:53:25.936Z,2.83
2022-10-11T00:56:07.707Z,2.83
2022-10-11T00:58:38.920Z,2.67
2022-10-11T01:01:06.451Z,2.70
2022-10-11T01:03:37.895Z,2.88
2022-10-11T01:06:05.661Z,2.95
2022-10-11T01:08:34.854Z,2.63
2022-10-11T01:11:03.596Z,2.83
2022-10-11T01:13:53.071Z,3.00
2022-10-11T01:16:34.677Z,2.70
2022-10-11T01:19:41.026Z,3.08
2022-10-11T01:22:47.096Z,2.83
2022-10-11T01:25:47.879Z,2.70
2022-10-11T01:28:36.954Z,2.88
2022-10-11T01:31:41.934Z,2.78
2022-10-11T01:34:17.254Z,3.00
2022-10-11T01:37:04.578Z,2.85
2022-10-11T01:39:41.477Z,2.80
2022-10-11T01:42:12.454Z,2.95
2022-10-11T01:44:43.086Z,3.03
2022-10-11T01:47:10.657Z,2.40
2022-10-11T01:49:40.441Z,2.65
2022-10-11T01:52:08.114Z,2.90
2022-10-11T01:55:08.523Z,2.75
2022-10-11T01:58:04.051Z,2.78
2022-10-11T02:00:47.235Z,3.10
2022-10-11T02:03:34.330Z,3.10
2022-10-11T02:06:33.055Z,3.00
2022-10-11T02:09:30.967Z,3.13
2022-10-11T02:12:05.278Z,2.67
2022-10-11T02:14:39.619Z,2.88
2022-10-11T02:20:03.835Z,2.65
2022-10-11T02:22:36.167Z,3.40
2022-10-11T02:25:08.108Z,3.13
2022-10-11T02:27:39.485Z,3.33
2022-10-11T02:30:09.363Z,2.95
2022-10-11T02:33:05.234Z,2.70
2022-10-11T02:36:26.610Z,2.92
2022-10-11T02:38:59.537Z,3.05
2022-10-11T02:41:34.359Z,2.78
2022-10-11T02:44:21.680Z,2.95
2022-10-11T02:46:50.567Z,3.00
2022-10-11T02:49:19.368Z,2.83
2022-10-11T02:51:47.210Z,2.90
2022-10-11T02:54:14.568Z,2.70
2022-10-11T02:56:42.537Z,3.42
2022-10-11T02:59:10.236Z,2.83
2022-10-11T03:01:37.803Z,3.13
2022-10-11T03:04:05.465Z,2.60
2022-10-11T03:06:32.936Z,3.20
2022-10-11T03:09:01.355Z,2.95
2022-10-11T03:11:31.354Z,3.15
2022-10-11T03:13:58.782Z,3.30
2022-10-11T03:16:26.224Z,4.03
2022-10-11T03:18:53.518Z,3.20
2022-10-11T03:21:20.987Z,2.80
2022-10-11T03:23:48.378Z,3.40
2022-10-11T03:26:16.044Z,3.00
2022-10-11T03:28:43.390Z,3.05
2022-10-11T03:31:11.218Z,2.67
2022-10-11T03:33:38.887Z,2.90
2022-10-11T03:36:09.177Z,2.85
2022-10-11T03:38:36.856Z,2.65
2022-10-11T03:41:04.527Z,2.40
2022-10-11T03:43:31.791Z,2.60
2022-10-11T03:46:00.525Z,2.75
2022-10-11T03:48:27.837Z,2.85
2022-10-11T03:50:55.507Z,2.67
2022-10-11T03:53:22.967Z,2.47
2022-10-11T03:55:55.034Z,2.75
2022-10-11T03:58:23.304Z,2.55
2022-10-11T04:00:52.236Z,2.33
2022-10-11T04:03:20.712Z,2.28
2022-10-11T04:05:48.327Z,2.42
2022-10-11T04:08:15.679Z,2.08
2022-10-11T04:10:43.270Z,2.55
2022-10-11T04:13:13.383Z,2.50
2022-10-11T04:15:41.478Z,2.63
2022-10-11T04:18:09.800Z,2.33
2022-10-11T04:20:38.450Z,2.30
2022-10-11T04:23:05.808Z,2.65
2022-10-11T04:25:33.327Z,2.55
2022-10-11T04:28:00.680Z,2.55
2022-10-11T04:30:28.355Z,2.60
2022-10-11T04:32:55.707Z,2.53
2022-10-11T04:35:23.302Z,2.80
2022-10-11T04:37:53.193Z,2.92
2022-10-11T04:40:22.619Z,2.50
2022-10-11T04:42:51.929Z,2.95
2022-10-11T04:45:20.768Z,2.67
2022-10-11T04:47:53.432Z,2.63
2022-10-11T04:50:20.864Z,2.63
2022-10-11T04:52:50.608Z,2.47
2022-10-11T04:55:18.126Z,2.20
2022-10-11T04:57:46.692Z,2.40
2022-10-11T05:00:15.118Z,2.38
2022-10-11T05:02:43.690Z,2.65
2022-10-11T05:05:11.251Z,2.25
2022-10-11T05:07:38.711Z,2.92
2022-10-11T05:10:06.765Z,2.70
2022-10-11T05:12:34.227Z,2.50
2022-10-11T05:15:04.347Z,2.53
2022-10-11T05:17:35.067Z,2.40
2022-10-11T05:20:02.531Z,2.60
2022-10-11T05:22:32.264Z,2.72
2022-10-11T05:24:59.759Z,2.38
2022-10-11T05:27:27.223Z,2.53
2022-10-11T05:29:54.746Z,2.50
2022-10-11T05:32:25.544Z,2.30
2022-10-11T05:34:55.049Z,2.80
2022-10-11T05:37:22.519Z,2.55
2022-10-11T05:39:49.920Z,3.08
2022-10-11T05:42:19.672Z,3.17
2022-10-11T05:44:47.130Z,2.85
2022-10-11T05:47:17.510Z,2.67
2022-10-11T05:49:45.136Z,3.30
2022-10-11T05:52:13.311Z,3.20
2022-10-11T05:54:40.894Z,3.08
2022-10-11T05:57:08.484Z,3.28
2022-10-11T05:59:35.977Z,3.25
2022-10-11T06:02:05.666Z,3.03
2022-10-11T06:04:37.198Z,3.58
2022-10-11T06:07:05.037Z,3.20
2022-10-11T06:09:34.830Z,3.13
2022-10-11T06:12:04.409Z,3.72
2022-10-11T06:14:32.358Z,4.00
2022-10-11T06:16:59.853Z,4.72
2022-10-11T06:19:28.275Z,3.90
2022-10-11T06:21:55.740Z,4.20
2022-10-11T06:24:23.116Z,4.03
2022-10-11T06:26:50.585Z,4.43
2022-10-11T06:29:18.247Z,4.13
2022-10-11T06:31:45.603Z,4.15
2022-10-11T06:34:12.937Z,3.75
2022-10-11T06:36:40.410Z,4.15
2022-10-11T06:39:07.880Z,4.20
2022-10-11T06:41:35.468Z,4.25
2022-10-11T06:44:02.911Z,4.80
2022-10-11T06:46:33.174Z,4.68
2022-10-11T06:49:00.858Z,4.35
2022-10-11T06:51:30.859Z,4.55
2022-10-11T06:54:00.105Z,4.63
2022-10-11T06:56:30.256Z,4.63
2022-10-11T06:58:59.550Z,4.40
2022-10-11T07:01:27.744Z,4.40
2022-10-11T07:03:57.313Z,4.43
2022-10-11T07:06:28.007Z,4.88
2022-10-11T07:08:55.655Z,4.25
2022-10-11T07:11:26.197Z,4.47
2022-10-11T07:13:56.156Z,4.25
2022-10-11T07:16:24.726Z,4.47
2022-10-11T07:18:59.846Z,5.32
2022-10-11T07:21:29.758Z,4.20
2022-10-11T07:24:00.475Z,5.05
2022-10-11T07:26:31.296Z,4.72
2022-10-11T07:29:04.253Z,4.38
2022-10-11T07:31:31.967Z,5.18
2022-10-11T07:33:59.507Z,4.72
2022-10-11T07:36:26.897Z,4.85
2022-10-11T07:38:55.520Z,5.00
2022-10-11T07:41:23.155Z,4.65
2022-10-11T07:43:54.561Z,4.03
2022-10-11T07:46:22.113Z,4.10
2022-10-11T07:48:52.092Z,3.70
2022-10-11T07:51:21.949Z,3.70
2022-10-11T07:53:56.716Z,3.80
2022-10-11T07:56:26.793Z,3.60
2022-10-11T07:59:01.507Z,3.60
2022-10-11T08:01:32.565Z,3.63
2022-10-11T08:04:01.347Z,3.35
2022-10-11T08:06:32.636Z,3.35
2022-10-11T08:09:01.654Z,3.40
2022-10-11T08:11:32.744Z,3.08
2022-10-11T08:14:01.647Z,3.25
2022-10-11T08:16:29.204Z,3.13
2022-10-11T08:18:57.282Z,2.90
2022-10-11T08:21:26.981Z,3.08
2022-10-11T08:23:54.635Z,3.20
2022-10-11T08:26:23.544Z,2.92
2022-10-11T08:28:51.040Z,3.42
2022-10-11T08:31:18.647Z,3.13
2022-10-11T08:33:46.317Z,3.05
2022-10-11T08:36:13.682Z,3.58
2022-10-11T08:38:41.963Z,3.92
2022-10-11T08:41:41.892Z,4.40
2022-10-11T08:45:10.496Z,3.97
2022-10-11T08:47:41.164Z,4.20
2022-10-11T08:50:19.785Z,5.97
2022-10-11T08:52:53.799Z,6.95
2022-10-11T08:55:41.966Z,7.50
2022-10-11T08:58:16.579Z,7.93
2022-10-11T09:00:47.040Z,9.25
2022-10-11T09:03:20.548Z,8.75
2022-10-11T09:06:06.639Z,8.75
2022-10-11T09:08:55.548Z,9.25
2022-10-11T09:11:44.306Z,9.40
2022-10-11T09:14:48.555Z,9.65
2022-10-11T09:17:40.268Z,9.27
2022-10-11T09:20:21.149Z,8.73
2022-10-11T09:22:55.719Z,9.30
2022-10-11T09:25:38.464Z,9.13
2022-10-11T09:28:23.083Z,8.52
2022-10-11T09:30:56.115Z,8.40
2022-10-11T09:33:32.443Z,8.25
2022-10-11T09:36:16.858Z,8.05
2022-10-11T09:38:52.239Z,8.75
2022-10-11T09:41:27.209Z,7.22
2022-10-11T09:43:54.780Z,7.80
2022-10-11T09:46:37.536Z,6.82
2022-10-11T09:49:14.329Z,8.13
2022-10-11T09:51:49.499Z,7.85
2022-10-11T09:54:19.205Z,6.88
2022-10-11T09:56:47.919Z,7.72
2022-10-11T09:59:32.073Z,7.13
2022-10-11T10:02:18.872Z,6.85
2022-10-11T10:04:59.441Z,7.05
2022-10-11T10:07:28.906Z,6.70
2022-10-11T10:09:58.004Z,7.07
2022-10-11T10:12:30.557Z,7.18
2022-10-11T10:15:23.642Z,6.32
2022-10-11T10:17:54.184Z,7.10
2022-10-11T10:20:24.755Z,6.75
2022-10-11T10:22:53.145Z,7.18
2022-10-11T10:25:36.643Z,6.10
2022-10-11T10:28:24.163Z,5.63
2022-10-11T10:30:58.300Z,5.95
2022-10-11T10:33:30.065Z,6.43
2022-10-11T10:36:03.379Z,6.65
2022-10-11T10:38:38.642Z,6.82
2022-10-11T10:41:14.006Z,6.40
2022-10-11T10:43:43.719Z,7.18
2022-10-11T10:46:50.864Z,6.53
2022-10-11T10:52:27.367Z,6.07
2022-10-11T10:55:15.775Z,6.18
2022-10-11T10:58:06.402Z,5.20
2022-10-11T11:00:43.603Z,5.25
2022-10-11T11:03:36.730Z,5.57
2022-10-11T11:06:16.255Z,5.30
2022-10-11T11:09:08.526Z,5.25
2022-10-11T11:11:41.976Z,5.63
2022-10-11T11:14:24.178Z,4.13
2022-10-11T11:17:12.100Z,4.63
2022-10-11T11:19:58.766Z,4.50
2022-10-11T11:22:38.382Z,4.90
2022-10-11T11:25:31.297Z,4.80
2022-10-11T11:28:27.529Z,5.05
2022-10-11T11:31:14.007Z,4.50
2022-10-11T11:34:21.880Z,4.68
2022-10-11T11:37:01.976Z,5.05
2022-10-11T11:39:43.883Z,4.28
2022-10-11T11:42:26.532Z,3.72
2022-10-11T11:44:53.998Z,3.77
2022-10-11T11:47:31.218Z,4.00
2022-10-11T11:49:59.644Z,3.47
2022-10-11T11:52:33.749Z,3.25
2022-10-11T11:55:52.483Z,3.78
2022-10-11T11:58:45.978Z,3.03
2022-10-11T12:01:32.010Z,3.83
2022-10-11T12:04:05.863Z,3.45
2022-10-11T12:06:37.918Z,3.35
2022-10-11T12:09:16.917Z,3.55
2022-10-11T12:12:07.037Z,3.75
2022-10-11T12:14:34.519Z,3.40
2022-10-11T12:17:20.839Z,3.30
2022-10-11T12:20:41.300Z,3.33
2022-10-11T12:23:30.040Z,3.00
2022-10-11T12:26:30.548Z,3.20
2022-10-11T12:29:06.386Z,2.92
2022-10-11T12:31:36.919Z,2.95
2022-10-11T12:34:10.202Z,3.25
2022-10-11T12:36:46.759Z,2.88
2022-10-11T12:39:19.615Z,2.95
2022-10-11T12:41:50.190Z,3.00
2022-10-11T12:44:24.558Z,2.95
2022-10-11T12:46:54.705Z,3.15
2022-10-11T12:49:33.663Z,3.20
2022-10-11T12:52:06.935Z,2.58
2022-10-11T12:57:48.831Z,3.53
2022-10-11T13:00:18.958Z,3.83
2022-10-11T13:02:48.546Z,3.58
2022-10-11T13:05:20.990Z,3.83
2022-10-11T13:07:50.987Z,4.07
2022-10-11T13:10:28.093Z,3.60
2022-10-11T13:12:59.634Z,3.50
2022-10-11T13:15:29.128Z,3.22
2022-10-11T13:18:01.419Z,3.35
2022-10-11T13:20:37.581Z,3.40
2022-10-11T13:23:22.408Z,3.42
2022-10-11T13:25:50.470Z,3.40
2022-10-11T13:28:19.655Z,3.70
2022-10-11T13:30:51.264Z,3.50
2022-10-11T13:33:33.524Z,3.42
2022-10-11T13:36:03.705Z,3.72
2022-10-11T13:38:34.498Z,3.60
2022-10-11T13:41:05.298Z,3.72
2022-10-11T13:43:33.788Z,3.72
2022-10-11T13:46:17.430Z,3.47
2022-10-11T13:48:45.698Z,3.67
2022-10-11T13:51:35.283Z,3.28
2022-10-11T13:54:13.999Z,3.65
2022-10-11T13:56:48.605Z,3.42
2022-10-11T13:59:22.352Z,3.33
2022-10-11T14:01:58.241Z,3.47
2022-10-11T14:04:30.028Z,3.30
2022-10-11T14:07:02.899Z,3.50
2022-10-11T14:09:34.016Z,3.25
2022-10-11T14:12:24.349Z,3.28
2022-10-11T14:14:52.051Z,3.65
2022-10-11T14:17:32.405Z,3.70
2022-10-11T14:20:12.348Z,3.30
2022-10-11T14:22:39.858Z,3.53
2022-10-11T14:25:07.374Z,3.72
2022-10-11T14:27:35.108Z,3.35
2022-10-11T14:30:27.448Z,4.00
2022-10-11T14:32:59.413Z,3.45
2022-10-11T14:35:33.743Z,3.45
2022-10-11T14:38:03.328Z,3.78
2022-10-11T14:40:32.242Z,3.75
2022-10-11T14:42:59.520Z,3.70
2022-10-11T14:45:26.994Z,3.92
2022-10-11T14:47:56.325Z,2.90
2022-10-11T14:50:26.603Z,3.60
2022-10-11T14:52:54.210Z,4.00
2022-10-11T14:55:23.762Z,3.30
2022-10-11T14:57:51.107Z,3.58
2022-10-11T15:00:22.633Z,3.30
2022-10-11T15:02:52.742Z,3.35
2022-10-11T15:05:28.751Z,3.15
2022-10-11T15:08:04.102Z,3.10
2022-10-11T15:10:38.496Z,3.20
2022-10-11T15:13:08.378Z,3.75
2022-10-11T15:15:37.679Z,3.03
2022-10-11T15:18:06.685Z,3.30
2022-10-11T15:20:40.232Z,3.38
2022-10-11T15:23:09.841Z,3.22
2022-10-11T15:25:40.346Z,3.70
2022-10-11T15:28:12.024Z,5.25
2022-10-11T15:30:41.636Z,5.03
2022-10-11T15:33:09.441Z,5.22
2022-10-11T15:35:36.901Z,5.28
2022-10-11T15:38:04.209Z,5.32
2022-10-11T15:40:36.967Z,5.70
2022-10-11T15:43:04.689Z,5.45
2022-10-11T15:45:32.251Z,5.20
2022-10-11T15:48:02.089Z,5.15
2022-10-11T15:50:35.243Z,5.80
2022-10-11T15:55:44.783Z,6.47
2022-10-11T15:58:21.644Z,5.80
2022-10-11T16:00:54.110Z,6.07
2022-10-11T16:03:27.003Z,5.88
2022-10-11T16:05:58.942Z,6.57
2022-10-11T16:08:29.974Z,6.20
2022-10-11T16:10:59.264Z,7.00
2022-10-11T16:13:26.771Z,7.68
2022-10-11T16:15:56.549Z,6.47
2022-10-11T16:18:24.171Z,6.38
2022-10-11T16:20:52.623Z,6.40
2022-10-11T16:23:22.007Z,5.65
2022-10-11T16:26:01.870Z,6.03
2022-10-11T16:28:29.837Z,5.60
2022-10-11T16:30:58.453Z,6.07
2022-10-11T16:33:27.302Z,5.35
2022-10-11T16:36:14.757Z,5.03
2022-10-11T16:38:42.067Z,5.75
2022-10-11T16:41:10.774Z,6.43
2022-10-11T16:43:38.173Z,5.60
2022-10-11T16:46:06.152Z,6.55
2022-10-11T16:48:33.949Z,6.43
2022-10-11T16:51:08.863Z,5.95
2022-10-11T16:53:37.100Z,5.95
2022-10-11T16:56:09.697Z,6.22
2022-10-11T16:58:37.517Z,5.75
2022-10-11T17:01:11.200Z,5.40
2022-10-11T17:03:39.106Z,5.35
2022-10-11T17:06:12.688Z,6.55
2022-10-11T17:08:41.177Z,6.30
2022-10-11T17:11:09.112Z,5.72
2022-10-11T17:13:36.502Z,5.43
2022-10-11T17:16:05.573Z,5.50
2022-10-11T17:18:36.670Z,5.45
2022-10-11T17:21:06.534Z,5.38
2022-10-11T17:23:35.435Z,5.78
2022-10-11T17:26:11.199Z,5.47
2022-10-11T17:28:39.287Z,6.35
2022-10-11T17:31:09.656Z,6.82
2022-10-11T17:33:38.010Z,7.00
2022-10-11T17:36:36.374Z,6.90
2022-10-11T17:39:07.844Z,7.15
2022-10-11T17:41:38.686Z,6.65
2022-10-11T17:44:06.711Z,6.43
2022-10-11T17:46:37.459Z,6.70
2022-10-11T17:49:08.365Z,6.55
2022-10-11T17:51:39.764Z,5.65
2022-10-11T17:54:12.434Z,6.18
2022-10-11T17:56:41.644Z,5.97
2022-10-11T17:59:16.766Z,5.55
2022-10-11T18:01:44.565Z,6.45
2022-10-11T18:04:16.626Z,5.78
2022-10-11T18:06:46.497Z,5.55
2022-10-11T18:09:18.430Z,6.22
2022-10-11T18:11:48.732Z,5.82
2022-10-11T18:14:16.796Z,5.63
2022-10-11T18:16:46.704Z,5.40
2022-10-11T18:19:14.457Z,5.03
2022-10-11T18:21:42.383Z,5.40
2022-10-11T18:24:16.063Z,4.88
2022-10-11T18:26:45.503Z,4.80
2022-10-11T18:29:15.731Z,5.43
2022-10-11T18:31:46.167Z,4.72
2022-10-11T18:34:14.198Z,4.68
2022-10-11T18:36:45.645Z,5.40
2022-10-11T18:39:15.640Z,4.90
2022-10-11T18:41:48.959Z,5.07
2022-10-11T18:44:16.746Z,4.97
2022-10-11T18:46:45.832Z,4.93
2022-10-11T18:49:13.631Z,4.22
2022-10-11T18:51:45.151Z,5.05
2022-10-11T18:54:17.006Z,5.18
2022-10-11T18:56:49.218Z,4.47
2022-10-11T18:59:20.065Z,4.90
2022-10-11T19:01:53.848Z,4.15
2022-10-11T19:04:23.638Z,4.28
2022-10-11T19:06:52.612Z,4.45
2022-10-11T19:09:23.827Z,4.70
2022-10-11T19:11:53.901Z,4.30
2022-10-11T19:14:25.952Z,4.25
2022-10-11T19:16:58.415Z,4.80
2022-10-11T19:19:27.858Z,4.15
2022-10-11T19:21:55.473Z,4.70
2022-10-11T19:24:26.618Z,4.57
2022-10-11T19:26:58.534Z,4.40
2022-10-11T19:29:32.422Z,4.30
2022-10-11T19:32:01.495Z,4.00
2022-10-11T19:34:31.585Z,4.47
2022-10-11T19:37:04.404Z,3.75
2022-10-11T19:39:32.648Z,4.00
2022-10-11T19:42:00.944Z,4.35
2022-10-11T19:44:28.591Z,5.15
2022-10-11T19:47:01.437Z,6.93
2022-10-11T19:49:33.244Z,7.60
2022-10-11T19:52:01.964Z,7.28
2022-10-11T19:54:31.959Z,9.25
2022-10-11T19:57:02.083Z,9.13
2022-10-11T19:59:31.896Z,8.95
2022-10-11T20:01:59.681Z,8.90
2022-10-11T20:04:51.246Z,9.00
2022-10-11T20:07:17.775Z,8.77
2022-10-11T20:09:45.289Z,9.23
2022-10-11T20:12:13.392Z,8.55
2022-10-11T20:14:41.269Z,9.57
2022-10-11T20:17:11.649Z,9.02
2022-10-11T20:19:39.065Z,8.82
2022-10-11T20:22:07.586Z,8.73
2022-10-11T20:24:38.283Z,8.30
2022-10-11T20:27:09.350Z,8.68
2022-10-11T20:29:37.897Z,8.77
2022-10-11T20:32:06.285Z,8.35
2022-10-11T20:34:36.528Z,7.72
2022-10-11T20:37:07.367Z,7.97
2022-10-11T20:39:35.121Z,7.93
2022-10-11T20:42:02.676Z,7.30
2022-10-11T20:44:31.330Z,8.10
2022-10-11T20:47:03.721Z,7.35
2022-10-11T20:49:31.622Z,7.32
2022-10-11T20:51:59.117Z,6.57
2022-10-11T20:54:28.958Z,6.90
2022-10-11T20:56:57.886Z,7.97
2022-10-11T20:59:25.342Z,7.55
2022-10-11T21:01:52.881Z,6.50
2022-10-11T21:04:23.808Z,7.07
2022-10-11T21:06:53.388Z,6.30
2022-10-11T21:09:20.897Z,7.25
2022-10-11T21:11:48.198Z,6.88
2022-10-11T21:16:48.889Z,6.45
2022-10-11T21:19:16.373Z,6.28
2022-10-11T21:21:51.167Z,6.35
2022-10-11T21:24:21.639Z,6.47
2022-10-11T21:26:48.991Z,5.85
2022-10-11T21:29:19.679Z,6.65
2022-10-11T21:31:47.096Z,6.15
2022-10-11T21:34:14.506Z,6.68
2022-10-11T21:36:42.585Z,6.40
2022-10-11T21:39:12.074Z,5.60
2022-10-11T21:41:42.342Z,5.32
2022-10-11T21:44:10.136Z,6.03
2022-10-11T21:47:04.848Z,5.75
2022-10-11T21:49:26.365Z,5.47
2022-10-11T21:51:56.170Z,5.38
2022-10-11T21:54:27.039Z,5.38
2022-10-11T21:56:54.547Z,5.40
2022-10-11T21:59:22.043Z,5.00
2022-10-11T22:01:49.559Z,5.22
2022-10-11T22:04:16.909Z,5.07
2022-10-11T22:06:44.506Z,5.22
2022-10-11T22:09:11.878Z,5.35
2022-10-11T22:11:39.381Z,5.30
2022-10-11T22:14:09.298Z,5.25
2022-10-11T22:16:36.855Z,5.35
2022-10-11T22:19:04.322Z,5.32
2022-10-11T22:21:34.275Z,4.72
2022-10-11T22:24:01.940Z,4.50
2022-10-11T22:26:31.587Z,4.70
2022-10-11T22:29:01.786Z,4.97
2022-10-11T22:31:29.928Z,4.90
2022-10-11T22:34:01.037Z,5.20
2022-10-11T22:36:30.624Z,5.03
2022-10-11T22:38:58.908Z,4.93
2022-10-11T22:41:26.916Z,4.85
2022-10-11T22:43:57.427Z,4.45
2022-10-11T22:46:24.756Z,4.68
2022-10-11T22:48:54.338Z,4.97
2022-10-11T22:51:21.597Z,4.18
2022-10-11T22:53:49.135Z,4.78
2022-10-11T22:56:16.757Z,4.43
2022-10-11T22:58:44.104Z,4.40
2022-10-11T23:01:14.100Z,4.80
2022-10-11T23:03:41.902Z,4.30
2022-10-11T23:06:11.919Z,4.47
2022-10-11T23:08:40.655Z,4.45
2022-10-11T23:11:08.327Z,4.80
2022-10-11T23:13:39.601Z,3.72
2022-10-11T23:16:09.585Z,4.28
2022-10-11T23:18:37.678Z,4.47
2022-10-11T23:21:07.543Z,4.63
2022-10-11T23:23:39.674Z,4.70
2022-10-11T23:26:15.728Z,4.45
2022-10-11T23:28:44.029Z,4.40
2022-10-11T23:31:14.747Z,4.32
2022-10-11T23:33:42.929Z,4.32
2022-10-11T23:36:18.535Z,4.35
2022-10-11T23:38:54.055Z,4.35
2022-10-11T23:41:26.879Z,4.10
2022-10-11T23:43:54.640Z,3.90
2022-10-11T23:46:22.282Z,4.43
2022-10-11T23:48:50.068Z,4.95
2022-10-11T23:51:17.498Z,4.30
2022-10-11T23:53:47.559Z,4.47
2022-10-11T23:56:15.331Z,4.30
2022-10-11T23:58:42.909Z,4.70
